This is the latest recevied weather packets stored in our database for station/object MKSRDG. If no packets are shown the sender has not sent any weather packets the latest 10 day(s).
| Time | Temp. | Humidity | Pressure | Rain* | Wind** | Luminosity | Snow |
|---|---|---|---|---|---|---|---|
| 1777642797 | 7.78° C | 94% | 1015.5 hPa | 0 mm | - | 39 W/m² | - |
| 1777641897 | 7.78° C | 94% | 1015.4 hPa | 0 mm | - | 23 W/m² | - |
| 1777640997 | 8.33° C | 94% | 1015.4 hPa | 0 mm | - | 9 W/m² | - |
| 1777640097 | 8.33° C | 94% | 1015.2 hPa | 0 mm | - | 0 W/m² | - |
| 1777639197 | 8.33° C | 93% | 1015.1 hPa | 0 mm | - | 0 W/m² | - |
| 1777638297 | 8.89° C | 93% | 1015 hPa | 0 mm | - | 0 W/m² | - |
| 1777637398 | 8.89° C | 93% | 1015 hPa | 0 mm | - | 0 W/m² | - |
| 1777636497 | 8.89° C | 93% | 1015.1 hPa | 0 mm | - | 0 W/m² | - |
| 1777635598 | 9.44° C | 91% | 1015 hPa | 0 mm | - | 0 W/m² | - |
| 1777634698 | 9.44° C | 92% | 1014.8 hPa | 0 mm | - | 0 W/m² | - |
| 1777633798 | 9.44° C | 91% | 1014.8 hPa | 0 mm | - | 0 W/m² | - |
| 1777632898 | 10° C | 90% | 1014.7 hPa | 0 mm | - | 0 W/m² | - |
| 1777631998 | 10.56° C | 88% | 1014.8 hPa | 0 mm | - | 0 W/m² | - |
| 1777631098 | 11.67° C | 84% | 1014.7 hPa | 0 mm | - | 0 W/m² | - |
| 1777630198 | 11.67° C | 85% | 1014.6 hPa | 0 mm | - | 0 W/m² | - |
| 1777629298 | 11.11° C | 87% | 1014.6 hPa | 0 mm | - | 0 W/m² | - |
| 1777628398 | 11.67° C | 85% | 1014.6 hPa | 0 mm | - | 0 W/m² | - |
| 1777627498 | 12.22° C | 83% | 1014.6 hPa | 0 mm | - | 0 W/m² | - |
| 1777626598 | 12.22° C | 83% | 1014.7 hPa | 0 mm | - | 0 W/m² | - |
| 1777625698 | 12.22° C | 82% | 1014.7 hPa | 0 mm | - | 0 W/m² | - |
| 1777624798 | 12.78° C | 82% | 1014.8 hPa | 0 mm | - | 0 W/m² | - |
| 1777623898 | 12.78° C | 82% | 1014.8 hPa | 0 mm | - | 0 W/m² | - |
| 1777622998 | 12.78° C | 81% | 1014.8 hPa | 0 mm | - | 0 W/m² | - |
| 1777622098 | 12.78° C | 81% | 1014.8 hPa | 0 mm | - | 0 W/m² | - |
| 1777621198 | 12.78° C | 80% | 1014.8 hPa | 0 mm | - | 0 W/m² | - |
* Rain latest hour (hover to see other rain measurements)
** Current wind speed in m/s (hover to see current wind gust speed)